Bella Una — WDF6443 — position and weather

sailwx.info

Track history (hours):
 
Tides and Currents Weather Stations Pressure Air Temp Water Temp Dewpoint Dewpoint Depression Visibility Wind Speed Wind Dir Waves Ship Positions

Bella Una

Owner: Bella Una, LLC, Fort Lauderdale, FL. More information available from US FCC via Universal Licensing System and Coast Guard Vessel Documentation Center.

Last reported at 2017-Jun-21 12:56 UTC. Time now 2017-Jun-28 02:05 UTC.
Position N 42°15' W 070°43'.

Length 39 m; draft 2.2 m.

Type: Pleasure craft. MMSI: 366609000.

Date/timePositionNaut miles runAvg speedWind from/ knotsBaromVisibWave heightAir tempDewpointWater temp
2017-Jun-21 12:56N 42°15' W 070°43'511.5
2017-Jun-21 12:28N 42°18' W 070°49'511.1
2017-Jun-21 12:00N 42°20' W 070°56'5 9.6
2017-Jun-21 11:30N 42°21' W 071°02'1 1.2
2017-Jun-21 11:00N 42°22' W 071°03'0 0.0
2017-Jun-21 10:30N 42°22' W 071°03'0 0.0
2017-Jun-21 10:00N 42°22' W 071°03'0 0.0
2017-Jun-21 09:30N 42°22' W 071°03'0 0.0
2017-Jun-21 09:00N 42°22' W 071°03'0 0.0
2017-Jun-21 08:30N 42°22' W 071°03'0 0.0
2017-Jun-21 08:00N 42°22' W 071°03'0 0.0
2017-Jun-21 07:30N 42°22' W 071°03'0 0.0
2017-Jun-21 07:00N 42°22' W 071°03'0 0.0
2017-Jun-21 06:30N 42°22' W 071°03'0 0.0
2017-Jun-21 06:00N 42°22' W 071°03'0 0.0
2017-Jun-21 05:30N 42°22' W 071°03'0 0.0
2017-Jun-21 05:00N 42°22' W 071°03'0 0.0
2017-Jun-21 04:30N 42°22' W 071°03'0 0.0
2017-Jun-21 04:00N 42°22' W 071°03'0 0.0
2017-Jun-21 03:30N 42°22' W 071°03'0 0.0
2017-Jun-21 03:00N 42°22' W 071°03'0 0.0
2017-Jun-21 02:30N 42°22' W 071°03'0 0.0
2017-Jun-21 02:00N 42°22' W 071°03'0 0.0
2017-Jun-21 01:30N 42°22' W 071°03'0 0.9
2017-Jun-21 01:00N 42°22' W 071°02'4 8.1
2017-Jun-21 00:30N 42°20' W 070°57'1 2.0
2017-Jun-21 00:00N 42°20' W 070°56'4 7.1
2017-Jun-20 23:30N 42°20' W 071°01'2 4.2
2017-Jun-20 23:01N 42°22' W 071°03'0 0.1
2017-Jun-20 22:30N 42°22' W 071°03'0 0.0
2017-Jun-20 22:00N 42°22' W 071°03'0 0.0
2017-Jun-20 21:30N 42°22' W 071°03'0 0.0
2017-Jun-20 21:00N 42°22' W 071°03'0 0.0
2017-Jun-20 20:30N 42°22' W 071°03'0 0.0
2017-Jun-20 20:00N 42°22' W 071°03'0 0.0
2017-Jun-20 19:30N 42°22' W 071°03'0 0.0
2017-Jun-20 19:00N 42°22' W 071°03'0 0.0
2017-Jun-20 18:30N 42°22' W 071°03'0 0.0
2017-Jun-20 18:00N 42°22' W 071°03'0 0.0
2017-Jun-20 17:30N 42°22' W 071°03'0 0.0
2017-Jun-20 17:00N 42°22' W 071°03'0 0.0
2017-Jun-20 16:30N 42°22' W 071°03'0 0.0
2017-Jun-20 16:00N 42°22' W 071°03'0 0.0
2017-Jun-20 15:30N 42°22' W 071°03'0 0.0
2017-Jun-20 15:00N 42°22' W 071°03'0 0.0
2017-Jun-20 14:30N 42°22' W 071°03'0 0.0
2017-Jun-20 13:30N 42°22' W 071°03'0 0.0
2017-Jun-20 13:00N 42°22' W 071°03'0 0.0
2017-Jun-20 12:30N 42°22' W 071°03'0 0.0
2017-Jun-20 12:00N 42°22' W 071°03'0 0.0
2017-Jun-20 11:30N 42°22' W 071°03'0 0.0
2017-Jun-20 11:00N 42°22' W 071°03'0 0.0
2017-Jun-20 10:30N 42°22' W 071°03'0 0.0
2017-Jun-20 10:00N 42°22' W 071°03'0 0.0
2017-Jun-20 09:30N 42°22' W 071°03'0 0.0
2017-Jun-20 09:00N 42°22' W 071°03'0 0.0
2017-Jun-20 08:30N 42°22' W 071°03'0 0.0
2017-Jun-20 08:00N 42°22' W 071°03'0 0.0
2017-Jun-20 07:30N 42°22' W 071°03'0 0.0
2017-Jun-20 07:00N 42°22' W 071°03'0 0.0
2017-Jun-20 06:30N 42°22' W 071°03'0 0.0
2017-Jun-20 06:00N 42°22' W 071°03'0 0.0
2017-Jun-20 05:30N 42°22' W 071°03'0 0.0
2017-Jun-20 05:00N 42°22' W 071°03'0 0.0
2017-Jun-20 04:30N 42°22' W 071°03'0 0.0
2017-Jun-20 04:01N 42°22' W 071°03'0 0.0
2017-Jun-20 03:30N 42°22' W 071°03'0 0.0
2017-Jun-20 03:00N 42°22' W 071°03'0 0.0
2017-Jun-20 02:30N 42°22' W 071°03'0 0.0
2017-Jun-20 02:00N 42°22' W 071°03'0 0.0
2017-Jun-20 01:30N 42°22' W 071°03'0 0.0
2017-Jun-20 01:00N 42°22' W 071°03'0 0.0
2017-Jun-20 00:30N 42°22' W 071°03'0 0.0
2017-Jun-20 00:00N 42°22' W 071°03'0 0.0
2017-Jun-19 23:30N 42°22' W 071°03'0 0.0
2017-Jun-19 23:00N 42°22' W 071°03'0 0.0
2017-Jun-19 22:30N 42°22' W 071°03'0 0.0
2017-Jun-19 22:00N 42°22' W 071°03'0 0.0
2017-Jun-19 21:30N 42°22' W 071°03'0 0.0
2017-Jun-19 21:00N 42°22' W 071°03'0 0.0
2017-Jun-19 20:30N 42°22' W 071°03'0 0.0
2017-Jun-19 20:00N 42°22' W 071°03'0 0.0
2017-Jun-19 19:30N 42°22' W 071°03'0 0.0
2017-Jun-19 19:00N 42°22' W 071°03'0 0.0
2017-Jun-19 18:30N 42°22' W 071°03'0 0.0
2017-Jun-19 18:00N 42°22' W 071°03'0 0.1
2017-Jun-19 17:30N 42°22' W 071°03'0 0.1
2017-Jun-19 17:00N 42°22' W 071°03'0 0.0
2017-Jun-19 16:30N 42°22' W 071°03'0 0.0
2017-Jun-19 16:00N 42°22' W 071°03'0 0.0
2017-Jun-19 15:30N 42°22' W 071°03'0 0.0
2017-Jun-19 15:00N 42°22' W 071°03'0 0.2
2017-Jun-19 14:00N 42°22' W 071°03'0 0.5
2017-Jun-19 13:30N 42°22' W 071°03'0 0.0
2017-Jun-19 13:00N 42°22' W 071°03'0 0.0
2017-Jun-19 12:30N 42°22' W 071°03'0 0.0
2017-Jun-19 12:00N 42°22' W 071°03'0 0.0
2017-Jun-19 11:30N 42°22' W 071°03'0 0.0
2017-Jun-19 11:00N 42°22' W 071°03'0 0.0
2017-Jun-19 10:30N 42°22' W 071°03'0 0.0
2017-Jun-19 10:00N 42°22' W 071°03'0 0.0
2017-Jun-19 09:30N 42°22' W 071°03'0 0.0
2017-Jun-19 09:00N 42°22' W 071°03'0 0.0
2017-Jun-19 08:30N 42°22' W 071°03'0 0.0
2017-Jun-19 08:00N 42°22' W 071°03'0 0.0
2017-Jun-19 07:30N 42°22' W 071°03'0 0.0
2017-Jun-19 07:00N 42°22' W 071°03'0 0.0
2017-Jun-19 06:30N 42°22' W 071°03'0 0.0
2017-Jun-19 06:00N 42°22' W 071°03'0 0.0
2017-Jun-19 05:30N 42°22' W 071°03'0 0.0
2017-Jun-19 05:00N 42°22' W 071°03'0 0.0
2017-Jun-19 04:30N 42°22' W 071°03'0 0.0
2017-Jun-19 04:00N 42°22' W 071°03'0 0.0
2017-Jun-19 03:30N 42°22' W 071°03'0 0.0
2017-Jun-19 03:00N 42°22' W 071°03'0 0.0
2017-Jun-19 02:30N 42°22' W 071°03'0 0.0
2017-Jun-19 02:00N 42°22' W 071°03'0 0.0
2017-Jun-19 01:30N 42°22' W 071°03'0 0.0
2017-Jun-19 01:00N 42°22' W 071°03'0 0.0
2017-Jun-19 00:30N 42°22' W 071°03'0 0.0
2017-Jun-19 00:00N 42°22' W 071°03'0 0.0
2017-Jun-18 23:30N 42°22' W 071°03'0 0.0
2017-Jun-18 23:00N 42°22' W 071°03'0 0.0
2017-Jun-18 22:30N 42°22' W 071°03'0 0.0
2017-Jun-18 22:00N 42°22' W 071°03'0 0.0
2017-Jun-18 21:30N 42°22' W 071°03'0 0.0
2017-Jun-18 21:00N 42°22' W 071°03'0 0.0
2017-Jun-18 20:30N 42°22' W 071°03'0 0.0
2017-Jun-18 20:00N 42°22' W 071°03'0 0.0
2017-Jun-18 19:30N 42°22' W 071°03'0 0.0
2017-Jun-18 19:00N 42°22' W 071°03'0 0.0
2017-Jun-18 18:30N 42°22' W 071°03'0 0.0
2017-Jun-18 18:00N 42°22' W 071°03'0 0.0
2017-Jun-18 17:30N 42°22' W 071°03'0 0.0
2017-Jun-18 17:00N 42°22' W 071°03'0 0.0
2017-Jun-18 16:30N 42°22' W 071°03'0 0.0
2017-Jun-18 16:00N 42°22' W 071°03'0 0.0
2017-Jun-18 15:30N 42°22' W 071°03'0 0.0
2017-Jun-18 15:00N 42°22' W 071°03'0 0.2
2017-Jun-18 14:00N 42°22' W 071°03'0 0.3
2017-Jun-18 13:30N 42°22' W 071°03'0 1.0
2017-Jun-18 13:00N 42°21' W 071°03'0 1.0
2017-Jun-18 12:30N 42°22' W 071°03'0 0.0
2017-Jun-18 12:00N 42°22' W 071°03'0 0.0
2017-Jun-18 11:30N 42°22' W 071°03'0 0.0
2017-Jun-18 11:00N 42°22' W 071°03'0 0.0
2017-Jun-18 10:30N 42°22' W 071°03'0 0.0
2017-Jun-18 10:00N 42°22' W 071°03'0 0.0
2017-Jun-18 09:30N 42°22' W 071°03'0 0.0
2017-Jun-18 09:00N 42°22' W 071°03'0 0.0
2017-Jun-18 08:30N 42°22' W 071°03'0 0.0
2017-Jun-18 08:00N 42°22' W 071°03'0 0.0
2017-Jun-18 07:30N 42°22' W 071°03'0 0.0
2017-Jun-18 07:00N 42°22' W 071°03'0 0.0
2017-Jun-18 06:30N 42°22' W 071°03'0 0.0
2017-Jun-18 06:00N 42°22' W 071°03'0 0.0
2017-Jun-18 05:30N 42°22' W 071°03'0 0.0
2017-Jun-18 05:00N 42°22' W 071°03'0 0.0
2017-Jun-18 04:30N 42°22' W 071°03'0 0.0
2017-Jun-18 04:00N 42°22' W 071°03'0 0.0
2017-Jun-18 03:30N 42°22' W 071°03'0 0.0
2017-Jun-18 03:00N 42°22' W 071°03'0 0.0
2017-Jun-18 02:30N 42°22' W 071°03'0 0.0
2017-Jun-18 02:00N 42°22' W 071°03'0 0.0
2017-Jun-18 01:30N 42°22' W 071°03'0 0.0
2017-Jun-18 01:00N 42°22' W 071°03'0 0.0
2017-Jun-18 00:30N 42°22' W 071°03'0 0.0
2017-Jun-18 00:00N 42°22' W 071°03'0 0.0
2017-Jun-17 23:30N 42°22' W 071°03'0 0.0
2017-Jun-17 23:00N 42°22' W 071°03'0 0.0
2017-Jun-17 22:30N 42°22' W 071°03'0 0.0
2017-Jun-17 22:00N 42°22' W 071°03'0 0.0
2017-Jun-17 21:30N 42°22' W 071°03'0 0.0
2017-Jun-17 21:00N 42°22' W 071°03'0 0.0
2017-Jun-17 20:30N 42°22' W 071°03'0 0.0
2017-Jun-17 20:00N 42°22' W 071°03'0 0.0
2017-Jun-17 19:30N 42°22' W 071°03'0 0.0
2017-Jun-17 19:00N 42°22' W 071°03'0 0.0
2017-Jun-17 18:30N 42°22' W 071°03'0 0.0
2017-Jun-17 18:00N 42°22' W 071°03'0 0.0
2017-Jun-17 17:30N 42°22' W 071°03'0 0.0
2017-Jun-17 17:00N 42°22' W 071°03'0 0.0
2017-Jun-17 16:30N 42°22' W 071°03'0 0.0
2017-Jun-17 16:00N 42°22' W 071°03'0 0.0
2017-Jun-17 15:30N 42°22' W 071°03'0 0.0
2017-Jun-17 15:00N 42°22' W 071°03'0 0.0
2017-Jun-17 14:30N 42°22' W 071°03'0 0.0
2017-Jun-17 13:30N 42°22' W 071°03'0 0.0
2017-Jun-17 13:00N 42°22' W 071°03'0 0.0
2017-Jun-17 12:30N 42°22' W 071°03'0 0.0
2017-Jun-17 12:00N 42°22' W 071°03'0 0.0
2017-Jun-17 11:30N 42°22' W 071°03'0 0.0
2017-Jun-17 11:00N 42°22' W 071°03'0 0.0
2017-Jun-17 10:30N 42°22' W 071°03'0 0.0
2017-Jun-17 10:00N 42°22' W 071°03'0 0.0
2017-Jun-17 09:30N 42°22' W 071°03'0 0.0
2017-Jun-17 09:00N 42°22' W 071°03'0 0.0
2017-Jun-17 08:30N 42°22' W 071°03'0 0.0
2017-Jun-17 08:00N 42°22' W 071°03'0 0.0
2017-Jun-17 07:30N 42°22' W 071°03'0 0.0
2017-Jun-17 07:00N 42°22' W 071°03'0 0.0
2017-Jun-17 06:30N 42°22' W 071°03'0 0.0
2017-Jun-17 06:00N 42°22' W 071°03'0 0.0
2017-Jun-17 05:30N 42°22' W 071°03'0 0.0
2017-Jun-17 05:00N 42°22' W 071°03'0 0.0
2017-Jun-17 04:30N 42°22' W 071°03'0 0.0
2017-Jun-17 04:00N 42°22' W 071°03'0 0.0
2017-Jun-17 03:30N 42°22' W 071°03'0 0.0
2017-Jun-17 03:00N 42°22' W 071°03'0 0.0
2017-Jun-17 02:30N 42°22' W 071°03'0 0.0
2017-Jun-17 02:00N 42°22' W 071°03'0 0.0
2017-Jun-17 01:30N 42°22' W 071°03'0 0.0
2017-Jun-17 01:00N 42°22' W 071°03'0 0.0
2017-Jun-17 00:30N 42°22' W 071°03'0 0.0
2017-Jun-17 00:00N 42°22' W 071°03'0 0.0
2017-Jun-16 23:30N 42°22' W 071°03'0 0.0
2017-Jun-16 23:00N 42°22' W 071°03'0 0.0
2017-Jun-16 22:30N 42°22' W 071°03'0 0.0
2017-Jun-16 22:00N 42°22' W 071°03'0 0.0
2017-Jun-16 21:30N 42°22' W 071°03'0 0.0
2017-Jun-16 21:00N 42°22' W 071°03'0 0.0
2017-Jun-16 20:30N 42°22' W 071°03'0 0.0
2017-Jun-16 20:00N 42°22' W 071°03'0 0.0
2017-Jun-16 19:30N 42°22' W 071°03'0 0.0
2017-Jun-16 19:00N 42°22' W 071°03'0 0.0
2017-Jun-16 18:30N 42°22' W 071°03'0 0.0
2017-Jun-16 18:00N 42°22' W 071°03'0 0.0
2017-Jun-16 17:30N 42°22' W 071°03'0 0.0
2017-Jun-16 17:00N 42°22' W 071°03'0 0.0
2017-Jun-16 16:30N 42°22' W 071°03'0 0.0
2017-Jun-16 16:00N 42°22' W 071°03'0 0.0
2017-Jun-16 15:30N 42°22' W 071°03'0 0.0
2017-Jun-16 15:00N 42°22' W 071°03'0 0.0
2017-Jun-16 14:30N 42°22' W 071°03'0 0.0
2017-Jun-16 13:30N 42°22' W 071°03'0 0.0
2017-Jun-16 13:00N 42°22' W 071°03'0 0.0
2017-Jun-16 12:30N 42°22' W 071°03'0 0.0
2017-Jun-16 12:00N 42°22' W 071°03'0 0.0
2017-Jun-16 11:30N 42°22' W 071°03'0 0.0
2017-Jun-16 11:00N 42°22' W 071°03'0 0.0
2017-Jun-16 10:30N 42°22' W 071°03'0 0.0
2017-Jun-16 10:00N 42°22' W 071°03'0 0.0
2017-Jun-16 09:30N 42°22' W 071°03'0 0.0
2017-Jun-16 09:00N 42°22' W 071°03'0 0.0
2017-Jun-16 08:30N 42°22' W 071°03'0 0.0
2017-Jun-16 08:00N 42°22' W 071°03'0 0.0
2017-Jun-16 07:30N 42°22' W 071°03'0 0.0
2017-Jun-16 07:00N 42°22' W 071°03'0 0.0
2017-Jun-16 06:30N 42°22' W 071°03'0 0.0
2017-Jun-16 06:00N 42°22' W 071°03'0 0.0
2017-Jun-16 05:30N 42°22' W 071°03'0 0.0
2017-Jun-16 05:00N 42°22' W 071°03'0 0.0
2017-Jun-16 04:30N 42°22' W 071°03'0 0.0
2017-Jun-16 04:00N 42°22' W 071°03'0 0.0
2017-Jun-16 03:30N 42°22' W 071°03'0 0.0
2017-Jun-16 03:00N 42°22' W 071°03'0 0.0
2017-Jun-16 02:30N 42°22' W 071°03'0 0.0
2017-Jun-16 02:00N 42°22' W 071°03'0 0.0
2017-Jun-16 01:30N 42°22' W 071°03'0 0.0
2017-Jun-16 01:00N 42°22' W 071°03'0 0.0
2017-Jun-16 00:30N 42°22' W 071°03'0 0.0
2017-Jun-16 00:00N 42°22' W 071°03'0 0.0
2017-Jun-15 23:30N 42°22' W 071°03'1 1.2
2017-Jun-15 23:01N 42°21' W 071°02'4 7.7
2017-Jun-15 22:30N 42°20' W 070°57'3 5.4
2017-Jun-15 22:00N 42°22' W 070°54'4 8.5
2017-Jun-15 21:30N 42°20' W 070°59'3 6.1
2017-Jun-15 21:00N 42°22' W 071°03'0 0.0
2017-Jun-15 20:30N 42°22' W 071°03'0 0.0
2017-Jun-15 20:00N 42°22' W 071°03'0 0.0
2017-Jun-15 19:30N 42°22' W 071°03'0 0.0
2017-Jun-15 18:55N 42°22' W 071°03'0 0.0
2017-Jun-15 18:25N 42°22' W 071°03'0 0.0
2017-Jun-15 17:55N 42°22' W 071°03'0 0.0
2017-Jun-15 17:25N 42°22' W 071°03'0 0.0
2017-Jun-15 16:31N 42°22' W 071°03'0 0.0
2017-Jun-15 16:25N 42°22' W 071°03'0 0.0
2017-Jun-15 15:55N 42°22' W 071°03'0 0.0
2017-Jun-15 15:25N 42°22' W 071°03'0 0.0
2017-Jun-15 14:49N 42°22' W 071°03'0 0.0
2017-Jun-15 14:25N 42°22' W 071°03'0 0.0
2017-Jun-15 13:25N 42°22' W 071°03'0 0.0
2017-Jun-15 12:58N 42°22' W 071°03'0 0.0
2017-Jun-15 12:28N 42°22' W 071°03'0 0.0
2017-Jun-15 11:55N 42°22' W 071°03'0 0.0
2017-Jun-15 11:25N 42°22' W 071°03'0 0.0
2017-Jun-15 10:55N 42°22' W 071°03'0 0.0
2017-Jun-15 10:25N 42°22' W 071°03'0 0.0
2017-Jun-15 09:55N 42°22' W 071°03'0 0.0
2017-Jun-15 09:19N 42°22' W 071°03'0 0.0
2017-Jun-15 08:55N 42°22' W 071°03'0 0.0
2017-Jun-15 08:25N 42°22' W 071°03'0 0.0
2017-Jun-15 07:55N 42°22' W 071°03'0 0.0
2017-Jun-15 07:25N 42°22' W 071°03'0 0.0
2017-Jun-15 06:55N 42°22' W 071°03'0 0.0
2017-Jun-15 06:25N 42°22' W 071°03'0 0.0
2017-Jun-15 05:55N 42°22' W 071°03'0 0.0
2017-Jun-15 05:25N 42°22' W 071°03'0 0.0
2017-Jun-15 04:55N 42°22' W 071°03'0 0.0
2017-Jun-15 04:25N 42°22' W 071°03'0 0.0
2017-Jun-15 03:58N 42°22' W 071°03'0 0.0
2017-Jun-15 03:28N 42°22' W 071°03'0 0.0
2017-Jun-15 02:55N 42°22' W 071°03'0 0.0
2017-Jun-15 02:28N 42°22' W 071°03'0 0.0
2017-Jun-15 01:58N 42°22' W 071°03'0 0.0
2017-Jun-15 01:28N 42°22' W 071°03'0 0.0
2017-Jun-15 00:58N 42°22' W 071°03'0 0.0
2017-Jun-15 00:28N 42°22' W 071°03'0 0.0
2017-Jun-14 23:58N 42°22' W 071°03'0 0.0
2017-Jun-14 23:25N 42°22' W 071°03'0 0.0
2017-Jun-14 22:58N 42°22' W 071°03'0 0.0
2017-Jun-14 22:28N 42°22' W 071°03'0 0.0
2017-Jun-14 13:01N 42°22' W 071°03'0 0.0
2017-Jun-14 12:58N 42°22' W 071°03'0 0.0
2017-Jun-14 12:28N 42°22' W 071°03'0 0.0
2017-Jun-14 11:55N 42°22' W 071°03'0 0.0
2017-Jun-14 11:25N 42°22' W 071°03'0 0.0
2017-Jun-14 10:58N 42°22' W 071°03'0 0.0
2017-Jun-14 10:28N 42°22' W 071°03'0 0.0
2017-Jun-14 09:58N 42°22' W 071°03'0 0.0
2017-Jun-14 09:28N 42°22' W 071°03'0 0.0
2017-Jun-14 08:58N 42°22' W 071°03'0 0.0
2017-Jun-14 08:25N 42°22' W 071°03'0 0.0
2017-Jun-14 07:49N 42°22' W 071°03'0 0.0
2017-Jun-14 07:25N 42°22' W 071°03'0 0.0
2017-Jun-14 06:55N 42°22' W 071°03'0 0.0
2017-Jun-14 06:25N 42°22' W 071°03'0 0.0
2017-Jun-14 05:55N 42°22' W 071°03'0 0.0
2017-Jun-14 05:13N 42°22' W 071°03'0 0.0
2017-Jun-14 04:55N 42°22' W 071°03'0 0.0
2017-Jun-14 04:28N 42°22' W 071°03'0 0.0
2017-Jun-14 03:58N 42°22' W 071°03'0 0.0
2017-Jun-14 03:25N 42°22' W 071°03'0 0.0
2017-Jun-14 02:55N 42°22' W 071°03'0 0.0
2017-Jun-14 02:25N 42°22' W 071°03'0 0.0
2017-Jun-14 01:55N 42°22' W 071°03'0 0.0
2017-Jun-14 01:28N 42°22' W 071°03'0 0.0
2017-Jun-14 00:55N 42°22' W 071°03'0 0.0
2017-Jun-14 00:28N 42°22' W 071°03'0 0.0
2017-Jun-13 23:58N 42°22' W 071°03'0 0.0
2017-Jun-13 23:28N 42°22' W 071°03'0 0.0
2017-Jun-13 22:58N 42°22' W 071°03'0 0.0
2017-Jun-13 22:28N 42°22' W 071°03'0 0.0
2017-Jun-13 21:58N 42°22' W 071°03'0 0.0
2017-Jun-13 21:28N 42°22' W 071°03'0 0.0
2017-Jun-13 20:58N 42°22' W 071°03'0 0.0
2017-Jun-13 20:28N 42°22' W 071°03'0 0.0
2017-Jun-13 19:58N 42°22' W 071°03'0 0.0
2017-Jun-13 19:28N 42°22' W 071°03'0 0.0
2017-Jun-13 18:58N 42°22' W 071°03'0 0.0
2017-Jun-13 18:28N 42°22' W 071°03'0 0.0
2017-Jun-13 17:58N 42°22' W 071°03'0 0.0
2017-Jun-13 17:28N 42°22' W 071°03'0 0.0
2017-Jun-13 16:58N 42°22' W 071°03'0 0.0
2017-Jun-13 16:28N 42°22' W 071°03'0 0.0
2017-Jun-13 15:58N 42°22' W 071°03'0 0.0
2017-Jun-13 15:28N 42°22' W 071°03'0 0.0
2017-Jun-13 14:58N 42°22' W 071°03'0 0.0
2017-Jun-13 14:28N 42°22' W 071°03'0 0.0
2017-Jun-13 13:28N 42°22' W 071°03'0 0.0
2017-Jun-13 12:58N 42°22' W 071°03'0 0.0
2017-Jun-13 12:28N 42°22' W 071°03'0 0.0
2017-Jun-13 11:58N 42°22' W 071°03'0 0.0
2017-Jun-13 11:28N 42°22' W 071°03'0 0.0
2017-Jun-13 10:58N 42°22' W 071°03'0 0.0
2017-Jun-13 10:28N 42°22' W 071°03'0 0.0
2017-Jun-13 09:58N 42°22' W 071°03'0 0.0
2017-Jun-13 09:28N 42°22' W 071°03'0 0.0
2017-Jun-13 08:55N 42°22' W 071°03'0 0.0
2017-Jun-13 08:28N 42°22' W 071°03'0 0.0
2017-Jun-13 07:49N 42°22' W 071°03'0 0.0
2017-Jun-13 07:25N 42°22' W 071°03'0 0.0
2017-Jun-13 06:55N 42°22' W 071°03'0 0.0
2017-Jun-13 06:28N 42°22' W 071°03'0 0.0
2017-Jun-13 05:55N 42°22' W 071°03'0 0.0
2017-Jun-13 05:28N 42°22' W 071°03'0 0.0
2017-Jun-13 04:58N 42°22' W 071°03'0 0.0
2017-Jun-13 04:28N 42°22' W 071°03'0 0.0
2017-Jun-13 03:58N 42°22' W 071°03'0 0.0
2017-Jun-13 03:28N 42°22' W 071°03'0 0.0
2017-Jun-13 02:58N 42°22' W 071°03'0 0.0
2017-Jun-13 02:28N 42°22' W 071°03'0 0.0
2017-Jun-13 01:55N 42°22' W 071°03'0 0.0
2017-Jun-13 01:28N 42°22' W 071°03'0 0.0
2017-Jun-13 00:58N 42°22' W 071°03'0 0.0
2017-Jun-13 00:28N 42°22' W 071°03'0 0.0
2017-Jun-12 23:58N 42°22' W 071°03'0 0.0
2017-Jun-12 23:28N 42°22' W 071°03'0 0.0
2017-Jun-12 22:58N 42°22' W 071°03'0 0.0
2017-Jun-12 22:22N 42°22' W 071°03'0 0.0
2017-Jun-12 21:58N 42°22' W 071°03'0 0.0
2017-Jun-12 21:28N 42°22' W 071°03'0 0.0
2017-Jun-12 20:58N 42°22' W 071°03'0 0.0
2017-Jun-12 20:25N 42°22' W 071°03'0 0.0
2017-Jun-12 19:58N 42°22' W 071°03'0 0.0
2017-Jun-12 19:25N 42°22' W 071°03'0 0.0
2017-Jun-12 18:55N 42°22' W 071°03'0 0.0
2017-Jun-12 18:25N 42°22' W 071°03'0 0.0
2017-Jun-12 17:58N 42°22' W 071°03'0 0.0
2017-Jun-12 17:25N 42°22' W 071°03'0 0.0
2017-Jun-12 16:58N 42°22' W 071°03'0 0.0
2017-Jun-12 16:28N 42°22' W 071°03'0 0.0
2017-Jun-12 15:58N 42°22' W 071°03'0 0.0
2017-Jun-12 15:28N 42°22' W 071°03'0 0.0
2017-Jun-12 14:58N 42°22' W 071°03'0 0.0
2017-Jun-12 14:28N 42°22' W 071°03'0 0.0
2017-Jun-12 13:28N 42°22' W 071°03'0 0.0
2017-Jun-12 12:58N 42°22' W 071°03'0 0.0
2017-Jun-12 12:28N 42°22' W 071°03'0 0.0
2017-Jun-12 11:58N 42°22' W 071°03'0 0.0
2017-Jun-12 11:28N 42°22' W 071°03'0 0.0
2017-Jun-12 10:58N 42°22' W 071°03'0 0.0
2017-Jun-12 10:28N 42°22' W 071°03'0 0.0
2017-Jun-12 09:58N 42°22' W 071°03'0 0.0
2017-Jun-12 09:28N 42°22' W 071°03'0 0.0
2017-Jun-12 08:58N 42°22' W 071°03'0 0.0
2017-Jun-12 08:25N 42°22' W 071°03'0 0.0
2017-Jun-12 07:55N 42°22' W 071°03'0 0.0
2017-Jun-12 07:25N 42°22' W 071°03'0 0.0
2017-Jun-12 06:58N 42°22' W 071°03'0 0.0
2017-Jun-12 06:28N 42°22' W 071°03'0 0.0
2017-Jun-12 05:43N 42°22' W 071°03'0 0.0
2017-Jun-12 05:25N 42°22' W 071°03'0 0.0
2017-Jun-12 04:55N 42°22' W 071°03'0 0.0
2017-Jun-12 04:25N 42°22' W 071°03'0 0.0
2017-Jun-12 03:58N 42°22' W 071°03'0 0.0
2017-Jun-12 03:28N 42°22' W 071°03'0 0.0
2017-Jun-12 02:58N 42°22' W 071°03'0 0.0
2017-Jun-12 02:28N 42°22' W 071°03'0 0.0
2017-Jun-12 01:58N 42°22' W 071°03'0 0.0
2017-Jun-12 01:28N 42°22' W 071°03'0 0.0
2017-Jun-12 00:58N 42°22' W 071°03'0 0.0
2017-Jun-12 00:28N 42°22' W 071°03'0 0.0
2017-Jun-11 23:58N 42°22' W 071°03'0 0.0
2017-Jun-11 23:25N 42°22' W 071°03'0 0.0
2017-Jun-11 22:58N 42°22' W 071°03'0 0.0
2017-Jun-11 22:22N 42°22' W 071°03'0 0.0
2017-Jun-11 21:55N 42°22' W 071°03'0 0.0
2017-Jun-11 21:28N 42°22' W 071°03'0 0.0
2017-Jun-11 20:55N 42°22' W 071°03'0 0.0
2017-Jun-11 20:28N 42°22' W 071°03'0 0.0
2017-Jun-11 19:58N 42°22' W 071°03'0 0.0
2017-Jun-11 19:25N 42°22' W 071°03'0 0.0
2017-Jun-11 18:55N 42°22' W 071°03'0 0.0
2017-Jun-11 18:25N 42°22' W 071°03'0 0.0
2017-Jun-11 17:55N 42°22' W 071°03'0 0.0
2017-Jun-11 17:25N 42°22' W 071°03'0 0.0
2017-Jun-11 16:58N 42°22' W 071°03'0 0.0
2017-Jun-11 16:25N 42°22' W 071°03'0 0.0
2017-Jun-11 15:52N 42°22' W 071°03'0 0.0
2017-Jun-11 15:25N 42°22' W 071°03'0 0.0
2017-Jun-11 14:55N 42°22' W 071°03'0 0.0
2017-Jun-11 14:28N 42°22' W 071°03'0 0.0
2017-Jun-11 13:25N 42°22' W 071°03'  
Track history (hours):
 
Tides and Currents Weather Stations Pressure Air Temp Water Temp Dewpoint Dewpoint Depression Visibility Wind Speed Wind Dir Waves Ship Positions

Bella Una

Owner: Bella Una, LLC, Fort Lauderdale, FL. More information available from US FCC via Universal Licensing System and Coast Guard Vessel Documentation Center.

Last reported at 2017-Jun-21 12:56 UTC. Time now 2017-Jun-28 02:05 UTC.
Position N 42°15' W 070°43'.

Length 39 m; draft 2.2 m.

Type: Pleasure craft. MMSI: 366609000.

Date/timePositionNaut miles runAvg speedWind from/ knotsBaromVisibWave heightAir tempDewpointWater temp
2017-Jun-21 12:56N 42°15' W 070°43'511.5
2017-Jun-21 12:28N 42°18' W 070°49'511.1
2017-Jun-21 12:00N 42°20' W 070°56'5 9.6
2017-Jun-21 11:30N 42°21' W 071°02'1 1.2
2017-Jun-21 11:00N 42°22' W 071°03'0 0.0
2017-Jun-21 10:30N 42°22' W 071°03'0 0.0
2017-Jun-21 10:00N 42°22' W 071°03'0 0.0
2017-Jun-21 09:30N 42°22' W 071°03'0 0.0
2017-Jun-21 09:00N 42°22' W 071°03'0 0.0
2017-Jun-21 08:30N 42°22' W 071°03'0 0.0
2017-Jun-21 08:00N 42°22' W 071°03'0 0.0
2017-Jun-21 07:30N 42°22' W 071°03'0 0.0
2017-Jun-21 07:00N 42°22' W 071°03'0 0.0
2017-Jun-21 06:30N 42°22' W 071°03'0 0.0
2017-Jun-21 06:00N 42°22' W 071°03'0 0.0
2017-Jun-21 05:30N 42°22' W 071°03'0 0.0
2017-Jun-21 05:00N 42°22' W 071°03'0 0.0
2017-Jun-21 04:30N 42°22' W 071°03'0 0.0
2017-Jun-21 04:00N 42°22' W 071°03'0 0.0
2017-Jun-21 03:30N 42°22' W 071°03'0 0.0
2017-Jun-21 03:00N 42°22' W 071°03'0 0.0
2017-Jun-21 02:30N 42°22' W 071°03'0 0.0
2017-Jun-21 02:00N 42°22' W 071°03'0 0.0
2017-Jun-21 01:30N 42°22' W 071°03'0 0.9
2017-Jun-21 01:00N 42°22' W 071°02'4 8.1
2017-Jun-21 00:30N 42°20' W 070°57'1 2.0
2017-Jun-21 00:00N 42°20' W 070°56'4 7.1
2017-Jun-20 23:30N 42°20' W 071°01'2 4.2
2017-Jun-20 23:01N 42°22' W 071°03'0 0.1
2017-Jun-20 22:30N 42°22' W 071°03'0 0.0
2017-Jun-20 22:00N 42°22' W 071°03'0 0.0
2017-Jun-20 21:30N 42°22' W 071°03'0 0.0
2017-Jun-20 21:00N 42°22' W 071°03'0 0.0
2017-Jun-20 20:30N 42°22' W 071°03'0 0.0
2017-Jun-20 20:00N 42°22' W 071°03'0 0.0
2017-Jun-20 19:30N 42°22' W 071°03'0 0.0
2017-Jun-20 19:00N 42°22' W 071°03'0 0.0
2017-Jun-20 18:30N 42°22' W 071°03'0 0.0
2017-Jun-20 18:00N 42°22' W 071°03'0 0.0
2017-Jun-20 17:30N 42°22' W 071°03'0 0.0
2017-Jun-20 17:00N 42°22' W 071°03'0 0.0
2017-Jun-20 16:30N 42°22' W 071°03'0 0.0
2017-Jun-20 16:00N 42°22' W 071°03'0 0.0
2017-Jun-20 15:30N 42°22' W 071°03'0 0.0
2017-Jun-20 15:00N 42°22' W 071°03'0 0.0
2017-Jun-20 14:30N 42°22' W 071°03'0 0.0
2017-Jun-20 13:30N 42°22' W 071°03'0 0.0
2017-Jun-20 13:00N 42°22' W 071°03'0 0.0
2017-Jun-20 12:30N 42°22' W 071°03'0 0.0
2017-Jun-20 12:00N 42°22' W 071°03'0 0.0
2017-Jun-20 11:30N 42°22' W 071°03'0 0.0
2017-Jun-20 11:00N 42°22' W 071°03'0 0.0
2017-Jun-20 10:30N 42°22' W 071°03'0 0.0
2017-Jun-20 10:00N 42°22' W 071°03'0 0.0
2017-Jun-20 09:30N 42°22' W 071°03'0 0.0
2017-Jun-20 09:00N 42°22' W 071°03'0 0.0
2017-Jun-20 08:30N 42°22' W 071°03'0 0.0
2017-Jun-20 08:00N 42°22' W 071°03'0 0.0
2017-Jun-20 07:30N 42°22' W 071°03'0 0.0
2017-Jun-20 07:00N 42°22' W 071°03'0 0.0
2017-Jun-20 06:30N 42°22' W 071°03'0 0.0
2017-Jun-20 06:00N 42°22' W 071°03'0 0.0
2017-Jun-20 05:30N 42°22' W 071°03'0 0.0
2017-Jun-20 05:00N 42°22' W 071°03'0 0.0
2017-Jun-20 04:30N 42°22' W 071°03'0 0.0
2017-Jun-20 04:01N 42°22' W 071°03'0 0.0
2017-Jun-20 03:30N 42°22' W 071°03'0 0.0
2017-Jun-20 03:00N 42°22' W 071°03'0 0.0
2017-Jun-20 02:30N 42°22' W 071°03'0 0.0
2017-Jun-20 02:00N 42°22' W 071°03'0 0.0
2017-Jun-20 01:30N 42°22' W 071°03'0 0.0
2017-Jun-20 01:00N 42°22' W 071°03'0 0.0
2017-Jun-20 00:30N 42°22' W 071°03'0 0.0
2017-Jun-20 00:00N 42°22' W 071°03'0 0.0
2017-Jun-19 23:30N 42°22' W 071°03'0 0.0
2017-Jun-19 23:00N 42°22' W 071°03'0 0.0
2017-Jun-19 22:30N 42°22' W 071°03'0 0.0
2017-Jun-19 22:00N 42°22' W 071°03'0 0.0
2017-Jun-19 21:30N 42°22' W 071°03'0 0.0
2017-Jun-19 21:00N 42°22' W 071°03'0 0.0
2017-Jun-19 20:30N 42°22' W 071°03'0 0.0
2017-Jun-19 20:00N 42°22' W 071°03'0 0.0
2017-Jun-19 19:30N 42°22' W 071°03'0 0.0
2017-Jun-19 19:00N 42°22' W 071°03'0 0.0
2017-Jun-19 18:30N 42°22' W 071°03'0 0.0
2017-Jun-19 18:00N 42°22' W 071°03'0 0.1
2017-Jun-19 17:30N 42°22' W 071°03'0 0.1
2017-Jun-19 17:00N 42°22' W 071°03'0 0.0
2017-Jun-19 16:30N 42°22' W 071°03'0 0.0
2017-Jun-19 16:00N 42°22' W 071°03'0 0.0
2017-Jun-19 15:30N 42°22' W 071°03'0 0.0
2017-Jun-19 15:00N 42°22' W 071°03'0 0.2
2017-Jun-19 14:00N 42°22' W 071°03'0 0.5
2017-Jun-19 13:30N 42°22' W 071°03'0 0.0
2017-Jun-19 13:00N 42°22' W 071°03'0 0.0
2017-Jun-19 12:30N 42°22' W 071°03'0 0.0
2017-Jun-19 12:00N 42°22' W 071°03'0 0.0
2017-Jun-19 11:30N 42°22' W 071°03'0 0.0
2017-Jun-19 11:00N 42°22' W 071°03'0 0.0
2017-Jun-19 10:30N 42°22' W 071°03'0 0.0
2017-Jun-19 10:00N 42°22' W 071°03'0 0.0
2017-Jun-19 09:30N 42°22' W 071°03'0 0.0
2017-Jun-19 09:00N 42°22' W 071°03'0 0.0
2017-Jun-19 08:30N 42°22' W 071°03'0 0.0
2017-Jun-19 08:00N 42°22' W 071°03'0 0.0
2017-Jun-19 07:30N 42°22' W 071°03'0 0.0
2017-Jun-19 07:00N 42°22' W 071°03'0 0.0
2017-Jun-19 06:30N 42°22' W 071°03'0 0.0
2017-Jun-19 06:00N 42°22' W 071°03'0 0.0
2017-Jun-19 05:30N 42°22' W 071°03'0 0.0
2017-Jun-19 05:00N 42°22' W 071°03'0 0.0
2017-Jun-19 04:30N 42°22' W 071°03'0 0.0
2017-Jun-19 04:00N 42°22' W 071°03'0 0.0
2017-Jun-19 03:30N 42°22' W 071°03'0 0.0
2017-Jun-19 03:00N 42°22' W 071°03'0 0.0
2017-Jun-19 02:30N 42°22' W 071°03'0 0.0
2017-Jun-19 02:00N 42°22' W 071°03'0 0.0
2017-Jun-19 01:30N 42°22' W 071°03'0 0.0
2017-Jun-19 01:00N 42°22' W 071°03'0 0.0
2017-Jun-19 00:30N 42°22' W 071°03'0 0.0
2017-Jun-19 00:00N 42°22' W 071°03'0 0.0
2017-Jun-18 23:30N 42°22' W 071°03'0 0.0
2017-Jun-18 23:00N 42°22' W 071°03'0 0.0
2017-Jun-18 22:30N 42°22' W 071°03'0 0.0
2017-Jun-18 22:00N 42°22' W 071°03'0 0.0
2017-Jun-18 21:30N 42°22' W 071°03'0 0.0
2017-Jun-18 21:00N 42°22' W 071°03'0 0.0
2017-Jun-18 20:30N 42°22' W 071°03'0 0.0
2017-Jun-18 20:00N 42°22' W 071°03'0 0.0
2017-Jun-18 19:30N 42°22' W 071°03'0 0.0
2017-Jun-18 19:00N 42°22' W 071°03'0 0.0
2017-Jun-18 18:30N 42°22' W 071°03'0 0.0
2017-Jun-18 18:00N 42°22' W 071°03'0 0.0
2017-Jun-18 17:30N 42°22' W 071°03'0 0.0
2017-Jun-18 17:00N 42°22' W 071°03'0 0.0
2017-Jun-18 16:30N 42°22' W 071°03'0 0.0
2017-Jun-18 16:00N 42°22' W 071°03'0 0.0
2017-Jun-18 15:30N 42°22' W 071°03'0 0.0
2017-Jun-18 15:00N 42°22' W 071°03'0 0.2
2017-Jun-18 14:00N 42°22' W 071°03'0 0.3
2017-Jun-18 13:30N 42°22' W 071°03'0 1.0
2017-Jun-18 13:00N 42°21' W 071°03'0 1.0
2017-Jun-18 12:30N 42°22' W 071°03'0 0.0
2017-Jun-18 12:00N 42°22' W 071°03'0 0.0
2017-Jun-18 11:30N 42°22' W 071°03'0 0.0
2017-Jun-18 11:00N 42°22' W 071°03'0 0.0
2017-Jun-18 10:30N 42°22' W 071°03'0 0.0
2017-Jun-18 10:00N 42°22' W 071°03'0 0.0
2017-Jun-18 09:30N 42°22' W 071°03'0 0.0
2017-Jun-18 09:00N 42°22' W 071°03'0 0.0
2017-Jun-18 08:30N 42°22' W 071°03'0 0.0
2017-Jun-18 08:00N 42°22' W 071°03'0 0.0
2017-Jun-18 07:30N 42°22' W 071°03'0 0.0
2017-Jun-18 07:00N 42°22' W 071°03'0 0.0
2017-Jun-18 06:30N 42°22' W 071°03'0 0.0
2017-Jun-18 06:00N 42°22' W 071°03'0 0.0
2017-Jun-18 05:30N 42°22' W 071°03'0 0.0
2017-Jun-18 05:00N 42°22' W 071°03'0 0.0
2017-Jun-18 04:30N 42°22' W 071°03'0 0.0
2017-Jun-18 04:00N 42°22' W 071°03'0 0.0
2017-Jun-18 03:30N 42°22' W 071°03'0 0.0
2017-Jun-18 03:00N 42°22' W 071°03'0 0.0
2017-Jun-18 02:30N 42°22' W 071°03'0 0.0
2017-Jun-18 02:00N 42°22' W 071°03'0 0.0
2017-Jun-18 01:30N 42°22' W 071°03'0 0.0
2017-Jun-18 01:00N 42°22' W 071°03'0 0.0
2017-Jun-18 00:30N 42°22' W 071°03'0 0.0
2017-Jun-18 00:00N 42°22' W 071°03'0 0.0
2017-Jun-17 23:30N 42°22' W 071°03'0 0.0
2017-Jun-17 23:00N 42°22' W 071°03'0 0.0
2017-Jun-17 22:30N 42°22' W 071°03'0 0.0
2017-Jun-17 22:00N 42°22' W 071°03'0 0.0
2017-Jun-17 21:30N 42°22' W 071°03'0 0.0
2017-Jun-17 21:00N 42°22' W 071°03'0 0.0
2017-Jun-17 20:30N 42°22' W 071°03'0 0.0
2017-Jun-17 20:00N 42°22' W 071°03'0 0.0
2017-Jun-17 19:30N 42°22' W 071°03'0 0.0
2017-Jun-17 19:00N 42°22' W 071°03'0 0.0
2017-Jun-17 18:30N 42°22' W 071°03'0 0.0
2017-Jun-17 18:00N 42°22' W 071°03'0 0.0
2017-Jun-17 17:30N 42°22' W 071°03'0 0.0
2017-Jun-17 17:00N 42°22' W 071°03'0 0.0
2017-Jun-17 16:30N 42°22' W 071°03'0 0.0
2017-Jun-17 16:00N 42°22' W 071°03'0 0.0
2017-Jun-17 15:30N 42°22' W 071°03'0 0.0
2017-Jun-17 15:00N 42°22' W 071°03'0 0.0
2017-Jun-17 14:30N 42°22' W 071°03'0 0.0
2017-Jun-17 13:30N 42°22' W 071°03'0 0.0
2017-Jun-17 13:00N 42°22' W 071°03'0 0.0
2017-Jun-17 12:30N 42°22' W 071°03'0 0.0
2017-Jun-17 12:00N 42°22' W 071°03'0 0.0
2017-Jun-17 11:30N 42°22' W 071°03'0 0.0
2017-Jun-17 11:00N 42°22' W 071°03'0 0.0
2017-Jun-17 10:30N 42°22' W 071°03'0 0.0
2017-Jun-17 10:00N 42°22' W 071°03'0 0.0
2017-Jun-17 09:30N 42°22' W 071°03'0 0.0
2017-Jun-17 09:00N 42°22' W 071°03'0 0.0
2017-Jun-17 08:30N 42°22' W 071°03'0 0.0
2017-Jun-17 08:00N 42°22' W 071°03'0 0.0
2017-Jun-17 07:30N 42°22' W 071°03'0 0.0
2017-Jun-17 07:00N 42°22' W 071°03'0 0.0
2017-Jun-17 06:30N 42°22' W 071°03'0 0.0
2017-Jun-17 06:00N 42°22' W 071°03'0 0.0
2017-Jun-17 05:30N 42°22' W 071°03'0 0.0
2017-Jun-17 05:00N 42°22' W 071°03'0 0.0
2017-Jun-17 04:30N 42°22' W 071°03'0 0.0
2017-Jun-17 04:00N 42°22' W 071°03'0 0.0
2017-Jun-17 03:30N 42°22' W 071°03'0 0.0
2017-Jun-17 03:00N 42°22' W 071°03'0 0.0
2017-Jun-17 02:30N 42°22' W 071°03'0 0.0
2017-Jun-17 02:00N 42°22' W 071°03'0 0.0
2017-Jun-17 01:30N 42°22' W 071°03'0 0.0
2017-Jun-17 01:00N 42°22' W 071°03'0 0.0
2017-Jun-17 00:30N 42°22' W 071°03'0 0.0
2017-Jun-17 00:00N 42°22' W 071°03'0 0.0
2017-Jun-16 23:30N 42°22' W 071°03'0 0.0
2017-Jun-16 23:00N 42°22' W 071°03'0 0.0
2017-Jun-16 22:30N 42°22' W 071°03'0 0.0
2017-Jun-16 22:00N 42°22' W 071°03'0 0.0
2017-Jun-16 21:30N 42°22' W 071°03'0 0.0
2017-Jun-16 21:00N 42°22' W 071°03'0 0.0
2017-Jun-16 20:30N 42°22' W 071°03'0 0.0
2017-Jun-16 20:00N 42°22' W 071°03'0 0.0
2017-Jun-16 19:30N 42°22' W 071°03'0 0.0
2017-Jun-16 19:00N 42°22' W 071°03'0 0.0
2017-Jun-16 18:30N 42°22' W 071°03'0 0.0
2017-Jun-16 18:00N 42°22' W 071°03'0 0.0
2017-Jun-16 17:30N 42°22' W 071°03'0 0.0
2017-Jun-16 17:00N 42°22' W 071°03'0 0.0
2017-Jun-16 16:30N 42°22' W 071°03'0 0.0
2017-Jun-16 16:00N 42°22' W 071°03'0 0.0
2017-Jun-16 15:30N 42°22' W 071°03'0 0.0
2017-Jun-16 15:00N 42°22' W 071°03'0 0.0
2017-Jun-16 14:30N 42°22' W 071°03'0 0.0
2017-Jun-16 13:30N 42°22' W 071°03'0 0.0
2017-Jun-16 13:00N 42°22' W 071°03'0 0.0
2017-Jun-16 12:30N 42°22' W 071°03'0 0.0
2017-Jun-16 12:00N 42°22' W 071°03'0 0.0
2017-Jun-16 11:30N 42°22' W 071°03'0 0.0
2017-Jun-16 11:00N 42°22' W 071°03'0 0.0
2017-Jun-16 10:30N 42°22' W 071°03'0 0.0
2017-Jun-16 10:00N 42°22' W 071°03'0 0.0
2017-Jun-16 09:30N 42°22' W 071°03'0 0.0
2017-Jun-16 09:00N 42°22' W 071°03'0 0.0
2017-Jun-16 08:30N 42°22' W 071°03'0 0.0
2017-Jun-16 08:00N 42°22' W 071°03'0 0.0
2017-Jun-16 07:30N 42°22' W 071°03'0 0.0
2017-Jun-16 07:00N 42°22' W 071°03'0 0.0
2017-Jun-16 06:30N 42°22' W 071°03'0 0.0
2017-Jun-16 06:00N 42°22' W 071°03'0 0.0
2017-Jun-16 05:30N 42°22' W 071°03'0 0.0
2017-Jun-16 05:00N 42°22' W 071°03'0 0.0
2017-Jun-16 04:30N 42°22' W 071°03'0 0.0
2017-Jun-16 04:00N 42°22' W 071°03'0 0.0
2017-Jun-16 03:30N 42°22' W 071°03'0 0.0
2017-Jun-16 03:00N 42°22' W 071°03'0 0.0
2017-Jun-16 02:30N 42°22' W 071°03'0 0.0
2017-Jun-16 02:00N 42°22' W 071°03'0 0.0
2017-Jun-16 01:30N 42°22' W 071°03'0 0.0
2017-Jun-16 01:00N 42°22' W 071°03'0 0.0
2017-Jun-16 00:30N 42°22' W 071°03'0 0.0
2017-Jun-16 00:00N 42°22' W 071°03'0 0.0
2017-Jun-15 23:30N 42°22' W 071°03'1 1.2
2017-Jun-15 23:01N 42°21' W 071°02'4 7.7
2017-Jun-15 22:30N 42°20' W 070°57'3 5.4
2017-Jun-15 22:00N 42°22' W 070°54'4 8.5
2017-Jun-15 21:30N 42°20' W 070°59'3 6.1
2017-Jun-15 21:00N 42°22' W 071°03'0 0.0
2017-Jun-15 20:30N 42°22' W 071°03'0 0.0
2017-Jun-15 20:00N 42°22' W 071°03'0 0.0
2017-Jun-15 19:30N 42°22' W 071°03'0 0.0
2017-Jun-15 18:55N 42°22' W 071°03'0 0.0
2017-Jun-15 18:25N 42°22' W 071°03'0 0.0
2017-Jun-15 17:55N 42°22' W 071°03'0 0.0
2017-Jun-15 17:25N 42°22' W 071°03'0 0.0
2017-Jun-15 16:31N 42°22' W 071°03'0 0.0
2017-Jun-15 16:25N 42°22' W 071°03'0 0.0
2017-Jun-15 15:55N 42°22' W 071°03'0 0.0
2017-Jun-15 15:25N 42°22' W 071°03'0 0.0
2017-Jun-15 14:49N 42°22' W 071°03'0 0.0
2017-Jun-15 14:25N 42°22' W 071°03'0 0.0
2017-Jun-15 13:25N 42°22' W 071°03'0 0.0
2017-Jun-15 12:58N 42°22' W 071°03'0 0.0
2017-Jun-15 12:28N 42°22' W 071°03'0 0.0
2017-Jun-15 11:55N 42°22' W 071°03'0 0.0
2017-Jun-15 11:25N 42°22' W 071°03'0 0.0
2017-Jun-15 10:55N 42°22' W 071°03'0 0.0
2017-Jun-15 10:25N 42°22' W 071°03'0 0.0
2017-Jun-15 09:55N 42°22' W 071°03'0 0.0
2017-Jun-15 09:19N 42°22' W 071°03'0 0.0
2017-Jun-15 08:55N 42°22' W 071°03'0 0.0
2017-Jun-15 08:25N 42°22' W 071°03'0 0.0
2017-Jun-15 07:55N 42°22' W 071°03'0 0.0
2017-Jun-15 07:25N 42°22' W 071°03'0 0.0
2017-Jun-15 06:55N 42°22' W 071°03'0 0.0
2017-Jun-15 06:25N 42°22' W 071°03'0 0.0
2017-Jun-15 05:55N 42°22' W 071°03'0 0.0
2017-Jun-15 05:25N 42°22' W 071°03'0 0.0
2017-Jun-15 04:55N 42°22' W 071°03'0 0.0
2017-Jun-15 04:25N 42°22' W 071°03'0 0.0
2017-Jun-15 03:58N 42°22' W 071°03'0 0.0
2017-Jun-15 03:28N 42°22' W 071°03'0 0.0
2017-Jun-15 02:55N 42°22' W 071°03'0 0.0
2017-Jun-15 02:28N 42°22' W 071°03'0 0.0
2017-Jun-15 01:58N 42°22' W 071°03'0 0.0
2017-Jun-15 01:28N 42°22' W 071°03'0 0.0
2017-Jun-15 00:58N 42°22' W 071°03'0 0.0
2017-Jun-15 00:28N 42°22' W 071°03'0 0.0
2017-Jun-14 23:58N 42°22' W 071°03'0 0.0
2017-Jun-14 23:25N 42°22' W 071°03'0 0.0
2017-Jun-14 22:58N 42°22' W 071°03'0 0.0
2017-Jun-14 22:28N 42°22' W 071°03'0 0.0
2017-Jun-14 13:01N 42°22' W 071°03'0 0.0
2017-Jun-14 12:58N 42°22' W 071°03'0 0.0
2017-Jun-14 12:28N 42°22' W 071°03'0 0.0
2017-Jun-14 11:55N 42°22' W 071°03'0 0.0
2017-Jun-14 11:25N 42°22' W 071°03'0 0.0
2017-Jun-14 10:58N 42°22' W 071°03'0 0.0
2017-Jun-14 10:28N 42°22' W 071°03'0 0.0
2017-Jun-14 09:58N 42°22' W 071°03'0 0.0
2017-Jun-14 09:28N 42°22' W 071°03'0 0.0
2017-Jun-14 08:58N 42°22' W 071°03'0 0.0
2017-Jun-14 08:25N 42°22' W 071°03'0 0.0
2017-Jun-14 07:49N 42°22' W 071°03'0 0.0
2017-Jun-14 07:25N 42°22' W 071°03'0 0.0
2017-Jun-14 06:55N 42°22' W 071°03'0 0.0
2017-Jun-14 06:25N 42°22' W 071°03'0 0.0
2017-Jun-14 05:55N 42°22' W 071°03'0 0.0
2017-Jun-14 05:13N 42°22' W 071°03'0 0.0
2017-Jun-14 04:55N 42°22' W 071°03'0 0.0
2017-Jun-14 04:28N 42°22' W 071°03'0 0.0
2017-Jun-14 03:58N 42°22' W 071°03'0 0.0
2017-Jun-14 03:25N 42°22' W 071°03'0 0.0
2017-Jun-14 02:55N 42°22' W 071°03'0 0.0
2017-Jun-14 02:25N 42°22' W 071°03'0 0.0
2017-Jun-14 01:55N 42°22' W 071°03'0 0.0
2017-Jun-14 01:28N 42°22' W 071°03'0 0.0
2017-Jun-14 00:55N 42°22' W 071°03'0 0.0
2017-Jun-14 00:28N 42°22' W 071°03'0 0.0
2017-Jun-13 23:58N 42°22' W 071°03'0 0.0
2017-Jun-13 23:28N 42°22' W 071°03'0 0.0
2017-Jun-13 22:58N 42°22' W 071°03'0 0.0
2017-Jun-13 22:28N 42°22' W 071°03'0 0.0
2017-Jun-13 21:58N 42°22' W 071°03'0 0.0
2017-Jun-13 21:28N 42°22' W 071°03'0 0.0
2017-Jun-13 20:58N 42°22' W 071°03'0 0.0
2017-Jun-13 20:28N 42°22' W 071°03'0 0.0
2017-Jun-13 19:58N 42°22' W 071°03'0 0.0
2017-Jun-13 19:28N 42°22' W 071°03'0 0.0
2017-Jun-13 18:58N 42°22' W 071°03'0 0.0
2017-Jun-13 18:28N 42°22' W 071°03'0 0.0
2017-Jun-13 17:58N 42°22' W 071°03'0 0.0
2017-Jun-13 17:28N 42°22' W 071°03'0 0.0
2017-Jun-13 16:58N 42°22' W 071°03'0 0.0
2017-Jun-13 16:28N 42°22' W 071°03'0 0.0
2017-Jun-13 15:58N 42°22' W 071°03'0 0.0
2017-Jun-13 15:28N 42°22' W 071°03'0 0.0
2017-Jun-13 14:58N 42°22' W 071°03'0 0.0
2017-Jun-13 14:28N 42°22' W 071°03'0 0.0
2017-Jun-13 13:28N 42°22' W 071°03'0 0.0
2017-Jun-13 12:58N 42°22' W 071°03'0 0.0
2017-Jun-13 12:28N 42°22' W 071°03'0 0.0
2017-Jun-13 11:58N 42°22' W 071°03'0 0.0
2017-Jun-13 11:28N 42°22' W 071°03'0 0.0
2017-Jun-13 10:58N 42°22' W 071°03'0 0.0
2017-Jun-13 10:28N 42°22' W 071°03'0 0.0
2017-Jun-13 09:58N 42°22' W 071°03'0 0.0
2017-Jun-13 09:28N 42°22' W 071°03'0 0.0
2017-Jun-13 08:55N 42°22' W 071°03'0 0.0
2017-Jun-13 08:28N 42°22' W 071°03'0 0.0
2017-Jun-13 07:49N 42°22' W 071°03'0 0.0
2017-Jun-13 07:25N 42°22' W 071°03'0 0.0
2017-Jun-13 06:55N 42°22' W 071°03'0 0.0
2017-Jun-13 06:28N 42°22' W 071°03'0 0.0
2017-Jun-13 05:55N 42°22' W 071°03'0 0.0
2017-Jun-13 05:28N 42°22' W 071°03'0 0.0
2017-Jun-13 04:58N 42°22' W 071°03'0 0.0
2017-Jun-13 04:28N 42°22' W 071°03'0 0.0
2017-Jun-13 03:58N 42°22' W 071°03'0 0.0
2017-Jun-13 03:28N 42°22' W 071°03'0 0.0
2017-Jun-13 02:58N 42°22' W 071°03'0 0.0
2017-Jun-13 02:28N 42°22' W 071°03'0 0.0
2017-Jun-13 01:55N 42°22' W 071°03'0 0.0
2017-Jun-13 01:28N 42°22' W 071°03'0 0.0
2017-Jun-13 00:58N 42°22' W 071°03'0 0.0
2017-Jun-13 00:28N 42°22' W 071°03'0 0.0
2017-Jun-12 23:58N 42°22' W 071°03'0 0.0
2017-Jun-12 23:28N 42°22' W 071°03'0 0.0
2017-Jun-12 22:58N 42°22' W 071°03'0 0.0
2017-Jun-12 22:22N 42°22' W 071°03'0 0.0
2017-Jun-12 21:58N 42°22' W 071°03'0 0.0
2017-Jun-12 21:28N 42°22' W 071°03'0 0.0
2017-Jun-12 20:58N 42°22' W 071°03'0 0.0
2017-Jun-12 20:25N 42°22' W 071°03'0 0.0
2017-Jun-12 19:58N 42°22' W 071°03'0 0.0
2017-Jun-12 19:25N 42°22' W 071°03'0 0.0
2017-Jun-12 18:55N 42°22' W 071°03'0 0.0
2017-Jun-12 18:25N 42°22' W 071°03'0 0.0
2017-Jun-12 17:58N 42°22' W 071°03'0 0.0
2017-Jun-12 17:25N 42°22' W 071°03'0 0.0
2017-Jun-12 16:58N 42°22' W 071°03'0 0.0
2017-Jun-12 16:28N 42°22' W 071°03'0 0.0
2017-Jun-12 15:58N 42°22' W 071°03'0 0.0
2017-Jun-12 15:28N 42°22' W 071°03'0 0.0
2017-Jun-12 14:58N 42°22' W 071°03'0 0.0
2017-Jun-12 14:28N 42°22' W 071°03'0 0.0
2017-Jun-12 13:28N 42°22' W 071°03'0 0.0
2017-Jun-12 12:58N 42°22' W 071°03'0 0.0
2017-Jun-12 12:28N 42°22' W 071°03'0 0.0
2017-Jun-12 11:58N 42°22' W 071°03'0 0.0
2017-Jun-12 11:28N 42°22' W 071°03'0 0.0
2017-Jun-12 10:58N 42°22' W 071°03'0 0.0
2017-Jun-12 10:28N 42°22' W 071°03'0 0.0
2017-Jun-12 09:58N 42°22' W 071°03'0 0.0
2017-Jun-12 09:28N 42°22' W 071°03'0 0.0
2017-Jun-12 08:58N 42°22' W 071°03'0 0.0
2017-Jun-12 08:25N 42°22' W 071°03'0 0.0
2017-Jun-12 07:55N 42°22' W 071°03'0 0.0
2017-Jun-12 07:25N 42°22' W 071°03'0 0.0
2017-Jun-12 06:58N 42°22' W 071°03'0 0.0
2017-Jun-12 06:28N 42°22' W 071°03'0 0.0
2017-Jun-12 05:43N 42°22' W 071°03'0 0.0
2017-Jun-12 05:25N 42°22' W 071°03'0 0.0
2017-Jun-12 04:55N 42°22' W 071°03'0 0.0
2017-Jun-12 04:25N 42°22' W 071°03'0 0.0
2017-Jun-12 03:58N 42°22' W 071°03'0 0.0
2017-Jun-12 03:28N 42°22' W 071°03'0 0.0
2017-Jun-12 02:58N 42°22' W 071°03'0 0.0
2017-Jun-12 02:28N 42°22' W 071°03'0 0.0
2017-Jun-12 01:58N 42°22' W 071°03'0 0.0
2017-Jun-12 01:28N 42°22' W 071°03'0 0.0
2017-Jun-12 00:58N 42°22' W 071°03'0 0.0
2017-Jun-12 00:28N 42°22' W 071°03'0 0.0
2017-Jun-11 23:58N 42°22' W 071°03'0 0.0
2017-Jun-11 23:25N 42°22' W 071°03'0 0.0
2017-Jun-11 22:58N 42°22' W 071°03'0 0.0
2017-Jun-11 22:22N 42°22' W 071°03'0 0.0
2017-Jun-11 21:55N 42°22' W 071°03'0 0.0
2017-Jun-11 21:28N 42°22' W 071°03'0 0.0
2017-Jun-11 20:55N 42°22' W 071°03'0 0.0
2017-Jun-11 20:28N 42°22' W 071°03'0 0.0
2017-Jun-11 19:58N 42°22' W 071°03'0 0.0
2017-Jun-11 19:25N 42°22' W 071°03'0 0.0
2017-Jun-11 18:55N 42°22' W 071°03'0 0.0
2017-Jun-11 18:25N 42°22' W 071°03'0 0.0
2017-Jun-11 17:55N 42°22' W 071°03'0 0.0
2017-Jun-11 17:25N 42°22' W 071°03'0 0.0
2017-Jun-11 16:58N 42°22' W 071°03'0 0.0
2017-Jun-11 16:25N 42°22' W 071°03'0 0.0
2017-Jun-11 15:52N 42°22' W 071°03'0 0.0
2017-Jun-11 15:25N 42°22' W 071°03'0 0.0
2017-Jun-11 14:55N 42°22' W 071°03'0 0.0
2017-Jun-11 14:28N 42°22' W 071°03'0 0.0
2017-Jun-11 13:25N 42°22' W 071°03'  

Dump ship's entire track history